Time,TemperatureF,DewpointF,PressureIn,WindDirection,WindDirectionDegrees,WindSpeedMPH,WindSpeedGustMPH,Humidity,HourlyPrecipIn,Conditions,Clouds,dailyrainin,SoftwareType,DateUTC
2013-03-10 00:00:00,38.3,30.1,30.23,West,275,0.0,0.0,72,0.00,,CLR,0.00,VWS V14.01,2013-03-10 08:00:00,
2013-03-10 00:05:00,38.2,30.0,30.23,West,275,0.0,0.0,72,0.00,,CLR,0.00,VWS V14.01,2013-03-10 08:05:00,
2013-03-10 00:10:00,38.2,30.0,30.24,West,275,0.0,0.0,72,0.00,,CLR,0.00,VWS V14.01,2013-03-10 08:10:00,
2013-03-10 00:15:00,38.0,29.8,30.24,West,275,0.0,0.0,72,0.00,,CLR,0.00,VWS V14.01,2013-03-10 08:15:00,
2013-03-10 00:20:00,37.9,30.0,30.25,West,275,0.0,0.0,73,0.00,,CLR,0.00,VWS V14.01,2013-03-10 08:20:00,
2013-03-10 00:25:00,37.7,29.8,30.25,West,275,0.0,0.0,73,0.00,,CLR,0.00,VWS V14.01,2013-03-10 08:25:00,
2013-03-10 00:31:00,37.5,29.6,30.25,West,275,0.0,0.0,73,0.00,,CLR,0.00,VWS V14.01,2013-03-10 08:31:00,
2013-03-10 00:36:00,37.3,29.8,30.26,West,275,0.0,0.0,74,0.00,,CLR,0.00,VWS V14.01,2013-03-10 08:36:00,
2013-03-10 00:41:00,37.1,29.9,30.25,West,275,0.0,0.0,75,0.00,,CLR,0.00,VWS V14.01,2013-03-10 08:41:00,
2013-03-10 00:46:00,36.9,29.4,30.26,West,275,0.0,0.0,74,0.00,,CLR,0.00,VWS V14.01,2013-03-10 08:46:00,
2013-03-10 00:51:00,36.7,29.5,30.26,West,275,0.0,0.0,75,0.00,,CLR,0.00,VWS V14.01,2013-03-10 08:51:00,
2013-03-10 00:56:00,36.5,29.7,30.26,West,275,0.0,0.0,76,0.00,,CLR,0.00,VWS V14.01,2013-03-10 08:56:00,
2013-03-10 01:01:00,36.3,29.5,30.26,West,275,0.0,0.0,76,0.00,,CLR,0.00,VWS V14.01,2013-03-10 09:01:00,
2013-03-10 01:06:00,36.2,29.4,30.26,West,275,0.0,0.0,76,0.00,,CLR,0.00,VWS V14.01,2013-03-10 09:06:00,
2013-03-10 01:11:00,36.0,29.5,30.26,West,275,0.0,0.0,77,0.00,,CLR,0.00,VWS V14.01,2013-03-10 09:11:00,
2013-03-10 01:16:00,35.9,29.4,30.26,West,275,0.0,0.0,77,0.00,,CLR,0.00,VWS V14.01,2013-03-10 09:16:00,
2013-03-10 01:21:00,35.7,29.2,30.26,West,275,0.0,0.0,77,0.00,,CLR,0.00,VWS V14.01,2013-03-10 09:21:00,
2013-03-10 01:26:00,35.6,29.4,30.26,West,275,0.0,0.0,78,0.00,,CLR,0.00,VWS V14.01,2013-03-10 09:26:00,
2013-03-10 01:31:00,35.5,29.3,30.27,West,275,0.0,0.0,78,0.00,,CLR,0.00,VWS V14.01,2013-03-10 09:31:00,
2013-03-10 01:36:00,35.4,29.5,30.27,West,275,0.0,0.0,79,0.00,,CLR,0.00,VWS V14.01,2013-03-10 09:36:00,
2013-03-10 01:42:00,35.3,29.5,30.27,West,275,0.0,0.0,79,0.00,,CLR,0.00,VWS V14.01,2013-03-10 09:42:00,
2013-03-10 01:47:00,35.2,29.4,30.27,West,275,0.0,0.0,79,0.00,,CLR,0.00,VWS V14.01,2013-03-10 09:47:00,
2013-03-10 01:52:00,35.1,29.3,30.27,West,275,0.0,0.0,79,0.00,,CLR,0.00,VWS V14.01,2013-03-10 09:52:00,
2013-03-10 01:57:00,35.0,29.2,30.26,West,275,0.0,0.0,79,0.00,,CLR,0.00,VWS V14.01,2013-03-10 09:57:00,
2013-03-10 03:02:00,34.9,29.4,30.27,West,275,2.0,4.0,80,0.00,,CLR,0.00,VWS V14.01,2013-03-10 10:02:00,
2013-03-10 03:07:00,35.1,29.3,30.27,West,275,0.0,4.0,79,0.00,,CLR,0.00,VWS V14.01,2013-03-10 10:07:00,
2013-03-10 03:12:00,35.2,29.4,30.27,West,275,1.0,1.0,79,0.00,,CLR,0.00,VWS V14.01,2013-03-10 10:12:00,
2013-03-10 03:17:00,35.2,29.4,30.27,West,275,0.0,1.0,79,0.00,,CLR,0.00,VWS V14.01,2013-03-10 10:17:00,
2013-03-10 03:22:00,35.4,29.2,30.26,West,275,2.0,4.0,78,0.00,,CLR,0.00,VWS V14.01,2013-03-10 10:22:00,
2013-03-10 03:27:00,35.6,29.1,30.27,West,275,0.0,2.0,77,0.00,,CLR,0.00,VWS V14.01,2013-03-10 10:27:00,
2013-03-10 03:32:00,35.6,28.8,30.27,West,275,0.0,0.0,76,0.00,,CLR,0.00,VWS V14.01,2013-03-10 10:32:00,
2013-03-10 03:37:00,35.5,28.7,30.27,West,275,0.0,0.0,76,0.00,,CLR,0.00,VWS V14.01,2013-03-10 10:37:00,
2013-03-10 03:42:00,35.4,28.6,30.26,West,275,0.0,0.0,76,0.00,,CLR,0.00,VWS V14.01,2013-03-10 10:42:00,
2013-03-10 03:47:00,35.2,28.7,30.27,West,275,0.0,0.0,77,0.00,,CLR,0.00,VWS V14.01,2013-03-10 10:47:00,
2013-03-10 03:53:00,35.0,28.5,30.27,West,275,0.0,0.0,77,0.00,,CLR,0.00,VWS V14.01,2013-03-10 10:53:00,
2013-03-10 03:58:00,34.9,28.4,30.27,West,275,0.0,0.0,77,0.00,,CLR,0.00,VWS V14.01,2013-03-10 10:58:00,
2013-03-10 04:03:00,34.8,28.6,30.27,West,275,0.0,0.0,78,0.00,,CLR,0.00,VWS V14.01,2013-03-10 11:03:00,
2013-03-10 04:08:00,34.7,28.5,30.27,West,275,2.0,4.0,78,0.00,,CLR,0.00,VWS V14.01,2013-03-10 11:08:00,
2013-03-10 04:13:00,34.6,28.5,30.27,West,275,0.0,2.0,78,0.00,,CLR,0.00,VWS V14.01,2013-03-10 11:13:00,
2013-03-10 04:18:00,34.7,28.5,30.27,West,275,1.0,2.0,78,0.00,,CLR,0.00,VWS V14.01,2013-03-10 11:18:00,
2013-03-10 04:23:00,34.8,28.6,30.26,West,275,0.0,2.0,78,0.00,,CLR,0.00,VWS V14.01,2013-03-10 11:23:00,
2013-03-10 04:28:00,34.9,28.8,30.27,West,275,0.0,0.0,78,0.00,,CLR,0.00,VWS V14.01,2013-03-10 11:28:00,
2013-03-10 04:33:00,35.0,28.9,30.27,West,275,0.0,0.0,78,0.00,,CLR,0.00,VWS V14.01,2013-03-10 11:33:00,
2013-03-10 04:38:00,35.0,28.9,30.27,West,275,0.0,0.0,78,0.00,,CLR,0.00,VWS V14.01,2013-03-10 11:38:00,
2013-03-10 04:43:00,35.0,28.9,30.27,West,275,0.0,0.0,78,0.00,,CLR,0.00,VWS V14.01,2013-03-10 11:43:00,
2013-03-10 04:48:00,35.0,28.5,30.27,West,275,0.0,0.0,77,0.00,,CLR,0.00,VWS V14.01,2013-03-10 11:48:00,
2013-03-10 04:53:00,35.0,28.5,30.27,West,275,0.0,0.0,77,0.00,,CLR,0.00,VWS V14.01,2013-03-10 11:53:00,
2013-03-10 04:59:00,34.9,28.4,30.27,West,275,0.0,0.0,77,0.00,,CLR,0.00,VWS V14.01,2013-03-10 11:59:00,
2013-03-10 05:04:00,34.9,28.1,30.27,West,275,0.0,0.0,76,0.00,,CLR,0.00,VWS V14.01,2013-03-10 12:04:00,
2013-03-10 05:09:00,34.8,28.0,30.27,West,275,0.0,0.0,76,0.00,,CLR,0.00,VWS V14.01,2013-03-10 12:09:00,
2013-03-10 05:14:00,34.7,28.2,30.28,West,275,0.0,0.0,77,0.00,,CLR,0.00,VWS V14.01,2013-03-10 12:14:00,
2013-03-10 05:19:00,34.6,28.1,30.28,West,275,0.0,0.0,77,0.00,,CLR,0.00,VWS V14.01,2013-03-10 12:19:00,
2013-03-10 05:24:00,34.5,28.0,30.28,West,275,0.0,0.0,77,0.00,,CLR,0.00,VWS V14.01,2013-03-10 12:24:00,
2013-03-10 05:29:00,34.4,28.0,30.28,West,275,0.0,0.0,77,0.00,,CLR,0.00,VWS V14.01,2013-03-10 12:29:00,
2013-03-10 05:34:00,34.2,28.1,30.28,West,275,0.0,0.0,78,0.00,,CLR,0.00,VWS V14.01,2013-03-10 12:34:00,
2013-03-10 05:39:00,34.0,27.6,30.28,West,275,0.0,0.0,77,0.00,,CLR,0.00,VWS V14.01,2013-03-10 12:39:00,
2013-03-10 05:44:00,33.8,27.7,30.28,West,275,0.0,0.0,78,0.00,,CLR,0.00,VWS V14.01,2013-03-10 12:44:00,
2013-03-10 05:49:00,33.5,27.4,30.29,West,275,0.0,0.0,78,0.00,,CLR,0.00,VWS V14.01,2013-03-10 12:49:00,
2013-03-10 05:54:00,33.3,27.5,30.29,West,275,0.0,0.0,79,0.00,,CLR,0.00,VWS V14.01,2013-03-10 12:54:00,
2013-03-10 05:59:00,33.2,27.4,30.29,West,275,0.0,0.0,79,0.00,,CLR,0.00,VWS V14.01,2013-03-10 12:59:00,
2013-03-10 06:04:00,33.0,27.2,30.29,West,275,0.0,0.0,79,0.00,,CLR,0.00,VWS V14.01,2013-03-10 13:04:00,
2013-03-10 06:10:00,32.8,27.0,30.29,West,275,0.0,0.0,79,0.00,,CLR,0.00,VWS V14.01,2013-03-10 13:10:00,
2013-03-10 06:15:00,32.6,27.1,30.29,West,275,0.0,0.0,80,0.00,,CLR,0.00,VWS V14.01,2013-03-10 13:15:00,
2013-03-10 06:20:00,32.3,27.1,30.29,West,275,0.0,1.0,81,0.00,,CLR,0.00,VWS V14.01,2013-03-10 13:20:00,
2013-03-10 06:25:00,32.2,27.3,30.29,West,275,0.0,0.0,82,0.00,,CLR,0.00,VWS V14.01,2013-03-10 13:25:00,
2013-03-10 06:30:00,32.1,27.2,30.30,West,275,0.0,0.0,82,0.00,,CLR,0.00,VWS V14.01,2013-03-10 13:30:00,
2013-03-10 06:35:00,32.0,27.1,30.30,West,275,0.0,0.0,82,0.00,,CLR,0.00,VWS V14.01,2013-03-10 13:35:00,
2013-03-10 06:40:00,31.9,27.0,30.30,West,275,0.0,0.0,82,0.00,,CLR,0.00,VWS V14.01,2013-03-10 13:40:00,
2013-03-10 06:45:00,31.8,27.2,30.30,West,275,0.0,0.0,83,0.00,,CLR,0.00,VWS V14.01,2013-03-10 13:45:00,
2013-03-10 06:50:00,31.7,27.1,30.30,West,275,0.0,0.0,83,0.00,,CLR,0.00,VWS V14.01,2013-03-10 13:50:00,
2013-03-10 06:55:00,31.6,26.8,30.30,West,275,0.0,0.0,82,0.00,,CLR,0.00,VWS V14.01,2013-03-10 13:55:00,
2013-03-10 07:00:00,31.5,26.6,30.30,West,275,0.0,0.0,82,0.00,,CLR,0.00,VWS V14.01,2013-03-10 14:00:00,
2013-03-10 07:05:00,31.3,26.8,30.31,West,275,0.0,0.0,83,0.00,,CLR,0.00,VWS V14.01,2013-03-10 14:05:00,
2013-03-10 07:10:00,31.2,26.6,30.31,West,275,4.0,4.0,83,0.00,,CLR,0.00,VWS V14.01,2013-03-10 14:10:00,
2013-03-10 07:15:00,31.3,27.0,30.31,West,275,0.0,0.0,84,0.00,,CLR,0.00,VWS V14.01,2013-03-10 14:15:00,
2013-03-10 07:21:00,31.3,26.8,30.32,West,275,0.0,0.0,83,0.00,,CLR,0.00,VWS V14.01,2013-03-10 14:21:00,
2013-03-10 07:26:00,31.4,27.1,30.32,West,275,0.0,2.0,84,0.00,,CLR,0.00,VWS V14.01,2013-03-10 14:26:00,
2013-03-10 07:31:00,31.7,27.7,30.32,West,275,1.0,1.0,85,0.00,,CLR,0.00,VWS V14.01,2013-03-10 14:31:00,
2013-03-10 07:36:00,32.0,27.7,30.33,West,275,1.0,2.0,84,0.00,,CLR,0.00,VWS V14.01,2013-03-10 14:36:00,
2013-03-10 07:41:00,32.5,28.5,30.33,West,275,0.0,0.0,85,0.00,,CLR,0.00,VWS V14.01,2013-03-10 14:41:00,
2013-03-10 07:46:00,33.4,29.1,30.33,West,275,0.0,0.0,84,0.00,,CLR,0.00,VWS V14.01,2013-03-10 14:46:00,
2013-03-10 07:51:00,34.1,29.8,30.33,West,275,0.0,0.0,84,0.00,,CLR,0.00,VWS V14.01,2013-03-10 14:51:00,
2013-03-10 07:56:00,34.7,30.1,30.33,West,275,0.0,0.0,83,0.00,,CLR,0.00,VWS V14.01,2013-03-10 14:56:00,
2013-03-10 08:01:00,35.3,30.7,30.33,West,275,0.0,0.0,83,0.00,,CLR,0.00,VWS V14.01,2013-03-10 15:01:00,
2013-03-10 08:06:00,36.3,31.3,30.33,West,275,0.0,0.0,82,0.00,,CLR,0.00,VWS V14.01,2013-03-10 15:06:00,
2013-03-10 08:11:00,37.5,32.2,30.33,West,275,0.0,0.0,81,0.00,,CLR,0.00,VWS V14.01,2013-03-10 15:11:00,
2013-03-10 08:16:00,38.7,32.4,30.34,West,275,0.0,0.0,78,0.00,,CLR,0.00,VWS V14.01,2013-03-10 15:16:00,
2013-03-10 08:21:00,39.8,32.9,30.34,West,275,1.0,2.0,76,0.00,,CLR,0.00,VWS V14.01,2013-03-10 15:21:00,
2013-03-10 08:26:00,40.7,33.4,30.34,West,275,0.0,0.0,75,0.00,,CLR,0.00,VWS V14.01,2013-03-10 15:26:00,
2013-03-10 08:32:00,41.6,32.9,30.34,West,275,0.0,0.0,71,0.00,,CLR,0.00,VWS V14.01,2013-03-10 15:32:00,
2013-03-10 08:37:00,42.4,32.2,30.34,West,275,0.0,0.0,67,0.00,,CLR,0.00,VWS V14.01,2013-03-10 15:37:00,
2013-03-10 08:42:00,43.1,32.2,30.34,West,275,0.0,2.0,65,0.00,,CLR,0.00,VWS V14.01,2013-03-10 15:42:00,
2013-03-10 08:47:00,43.6,32.2,30.34,West,275,1.0,4.0,64,0.00,,CLR,0.00,VWS V14.01,2013-03-10 15:47:00,
2013-03-10 08:52:00,44.2,32.4,30.34,West,275,0.0,0.0,63,0.00,,CLR,0.00,VWS V14.01,2013-03-10 15:52:00,
2013-03-10 08:57:00,44.7,32.1,30.34,West,275,0.0,2.0,61,0.00,,CLR,0.00,VWS V14.01,2013-03-10 15:57:00,
2013-03-10 09:02:00,45.3,32.2,30.34,West,275,0.0,0.0,60,0.00,,CLR,0.00,VWS V14.01,2013-03-10 16:02:00,
2013-03-10 09:07:00,45.8,32.3,30.34,West,275,0.0,0.0,59,0.00,,CLR,0.00,VWS V14.01,2013-03-10 16:07:00,
2013-03-10 09:12:00,46.4,32.4,30.34,West,275,0.0,0.0,58,0.00,,CLR,0.00,VWS V14.01,2013-03-10 16:12:00,
2013-03-10 09:17:00,46.8,32.8,30.34,West,272,2.0,4.0,58,0.00,,CLR,0.00,VWS V14.01,2013-03-10 16:17:00,
2013-03-10 09:22:00,47.3,32.4,30.35,West,272,2.0,4.0,56,0.00,,CLR,0.00,VWS V14.01,2013-03-10 16:22:00,
2013-03-10 09:27:00,47.7,32.3,30.35,West,272,0.0,2.0,55,0.00,,CLR,0.00,VWS V14.01,2013-03-10 16:27:00,
2013-03-10 09:33:00,48.2,33.3,30.35,West,272,0.0,2.0,56,0.00,,CLR,0.00,VWS V14.01,2013-03-10 16:33:00,
2013-03-10 09:38:00,48.5,31.7,30.35,West,272,0.0,0.0,52,0.00,,CLR,0.00,VWS V14.01,2013-03-10 16:38:00,
2013-03-10 09:43:00,48.9,32.1,30.35,West,272,0.0,0.0,52,0.00,,CLR,0.00,VWS V14.01,2013-03-10 16:43:00,
2013-03-10 09:48:00,49.3,31.0,30.35,West,272,0.0,0.0,49,0.00,,CLR,0.00,VWS V14.01,2013-03-10 16:48:00,
2013-03-10 09:53:00,49.9,31.0,30.35,West,272,0.0,0.0,48,0.00,,CLR,0.00,VWS V14.01,2013-03-10 16:53:00,
2013-03-10 09:58:00,50.3,30.9,30.35,West,272,0.0,4.0,47,0.00,,CLR,0.00,VWS V14.01,2013-03-10 16:58:00,
2013-03-10 10:03:00,51.0,31.0,30.35,West,273,0.0,4.0,46,0.00,,CLR,0.00,VWS V14.01,2013-03-10 17:03:00,
2013-03-10 10:08:00,51.4,30.8,30.35,West,272,0.0,2.0,45,0.00,,CLR,0.00,VWS V14.01,2013-03-10 17:08:00,
2013-03-10 10:13:00,52.2,30.4,30.35,West,273,2.0,4.0,43,0.00,,CLR,0.00,VWS V14.01,2013-03-10 17:13:00,
2013-03-10 10:18:00,52.6,30.8,30.35,WNW,284,5.0,7.0,43,0.00,,CLR,0.00,VWS V14.01,2013-03-10 17:18:00,
2013-03-10 10:23:00,53.3,30.8,30.35,ENE,63,0.0,7.0,42,0.00,,CLR,0.00,VWS V14.01,2013-03-10 17:23:00,
2013-03-10 10:28:00,53.7,31.2,30.35,ENE,63,2.0,4.0,42,0.00,,CLR,0.00,VWS V14.01,2013-03-10 17:28:00,
2013-03-10 10:33:00,54.4,29.3,30.35,NE,52,0.0,5.0,38,0.00,,CLR,0.00,VWS V14.01,2013-03-10 17:33:00,
2013-03-10 10:38:00,54.8,28.4,30.35,NE,49,2.0,6.0,36,0.00,,CLR,0.00,VWS V14.01,2013-03-10 17:38:00,
2013-03-10 10:44:00,55.4,28.9,30.35,NE,52,2.0,6.0,36,0.00,,CLR,0.00,VWS V14.01,2013-03-10 17:44:00,
2013-03-10 10:49:00,55.6,28.4,30.34,NE,53,4.0,6.0,35,0.00,,CLR,0.00,VWS V14.01,2013-03-10 17:49:00,
2013-03-10 10:54:00,56.0,26.6,30.34,ENE,71,6.0,6.0,32,0.00,,CLR,0.00,VWS V14.01,2013-03-10 17:54:00,
2013-03-10 10:59:00,56.1,25.1,30.34,East,90,4.0,10.0,30,0.00,,CLR,0.00,VWS V14.01,2013-03-10 17:59:00,
2013-03-10 11:04:00,56.6,27.1,30.34,NE,50,5.0,10.0,32,0.00,,CLR,0.00,VWS V14.01,2013-03-10 18:04:00,
2013-03-10 11:09:00,56.8,27.3,30.34,ENE,58,3.0,10.0,32,0.00,,CLR,0.00,VWS V14.01,2013-03-10 18:09:00,
2013-03-10 11:14:00,57.4,26.2,30.34,ENE,67,5.0,10.0,30,0.00,,CLR,0.00,VWS V14.01,2013-03-10 18:14:00,
2013-03-10 11:19:00,57.5,25.5,30.34,NE,51,6.0,11.0,29,0.00,,CLR,0.00,VWS V14.01,2013-03-10 18:19:00,
2013-03-10 11:24:00,58.2,23.5,30.34,ENE,57,8.0,12.0,26,0.00,,CLR,0.00,VWS V14.01,2013-03-10 18:24:00,
2013-03-10 11:31:00,58.4,22.7,30.34,ENE,77,6.0,14.0,25,0.00,,CLR,0.00,VWS V14.01,2013-03-10 18:31:00,
2013-03-10 11:36:00,58.8,23.1,30.33,NE,53,6.0,8.0,25,0.00,,CLR,0.00,VWS V14.01,2013-03-10 18:36:00,
2013-03-10 11:41:00,59.2,23.4,30.33,ENE,74,10.0,11.0,25,0.00,,CLR,0.00,VWS V14.01,2013-03-10 18:41:00,
2013-03-10 11:46:00,59.6,21.8,30.33,NNE,33,7.0,11.0,23,0.00,,CLR,0.00,VWS V14.01,2013-03-10 18:46:00,
2013-03-10 11:51:00,60.0,21.1,30.32,ENE,59,14.0,14.0,22,0.00,,CLR,0.00,VWS V14.01,2013-03-10 18:51:00,
2013-03-10 11:57:00,60.3,21.3,30.32,NE,46,2.0,10.0,22,0.00,,CLR,0.00,VWS V14.01,2013-03-10 18:57:00,
2013-03-10 12:02:00,60.6,21.6,30.32,East,84,7.0,10.0,22,0.00,,CLR,0.00,VWS V14.01,2013-03-10 19:02:00,
2013-03-10 12:07:00,60.8,20.6,30.32,ENE,59,11.0,14.0,21,0.00,,CLR,0.00,VWS V14.01,2013-03-10 19:07:00,
2013-03-10 12:12:00,61.0,19.7,30.31,East,84,8.0,14.0,20,0.00,,CLR,0.00,VWS V14.01,2013-03-10 19:12:00,
2013-03-10 12:17:00,61.3,19.9,30.31,East,92,7.0,11.0,20,0.00,,CLR,0.00,VWS V14.01,2013-03-10 19:17:00,
2013-03-10 12:22:00,61.5,18.9,30.31,NE,44,9.0,12.0,19,0.00,,CLR,0.00,VWS V14.01,2013-03-10 19:22:00,
2013-03-10 12:27:00,61.7,20.2,30.31,ENE,68,8.0,15.0,20,0.00,,CLR,0.00,VWS V14.01,2013-03-10 19:27:00,
2013-03-10 12:32:00,62.0,19.3,30.31,East,94,12.0,15.0,19,0.00,,CLR,0.00,VWS V14.01,2013-03-10 19:32:00,
2013-03-10 12:37:00,62.5,19.7,30.31,NE,50,8.0,12.0,19,0.00,,CLR,0.00,VWS V14.01,2013-03-10 19:37:00,
2013-03-10 12:42:00,62.5,19.7,30.31,NE,46,8.0,12.0,19,0.00,,CLR,0.00,VWS V14.01,2013-03-10 19:42:00,
2013-03-10 12:47:00,63.5,20.5,30.30,ENE,63,3.0,12.0,19,0.00,,CLR,0.00,VWS V14.01,2013-03-10 19:47:00,
2013-03-10 12:53:00,64.0,19.7,30.30,NE,40,14.0,14.0,18,0.00,,CLR,0.00,VWS V14.01,2013-03-10 19:53:00,
2013-03-10 12:58:00,64.0,20.9,30.30,NE,35,6.0,7.0,19,0.00,,CLR,0.00,VWS V14.01,2013-03-10 19:58:00,
2013-03-10 13:03:00,64.4,21.3,30.30,North,355,10.0,10.0,19,0.00,,CLR,0.00,VWS V14.01,2013-03-10 20:03:00,
2013-03-10 13:08:00,64.7,21.5,30.29,ENE,59,4.0,7.0,19,0.00,,CLR,0.00,VWS V14.01,2013-03-10 20:08:00,
2013-03-10 13:13:00,65.2,21.9,30.29,NE,49,4.0,9.0,19,0.00,,CLR,0.00,VWS V14.01,2013-03-10 20:13:00,
2013-03-10 13:18:00,65.4,20.8,30.29,NE,49,0.0,9.0,18,0.00,,CLR,0.00,VWS V14.01,2013-03-10 20:18:00,
2013-03-10 13:24:00,65.7,21.1,30.29,ENE,71,8.0,8.0,18,0.00,,CLR,0.00,VWS V14.01,2013-03-10 20:24:00,
2013-03-10 13:29:00,65.9,19.9,30.28,NE,37,5.0,11.0,17,0.00,,CLR,0.00,VWS V14.01,2013-03-10 20:29:00,
2013-03-10 13:34:00,65.6,19.6,30.27,North,5,5.0,11.0,17,0.00,,CLR,0.00,VWS V14.01,2013-03-10 20:34:00,
2013-03-10 13:39:00,65.8,19.8,30.28,NNE,26,4.0,12.0,17,0.00,,CLR,0.00,VWS V14.01,2013-03-10 20:39:00,
2013-03-10 13:44:00,66.0,20.0,30.27,NE,40,4.0,12.0,17,0.00,,CLR,0.00,VWS V14.01,2013-03-10 20:44:00,
2013-03-10 13:50:00,66.2,18.7,30.27,NE,56,8.0,10.0,16,0.00,,CLR,0.00,VWS V14.01,2013-03-10 20:50:00,
2013-03-10 13:55:00,66.2,20.1,30.27,ENE,65,6.0,10.0,17,0.00,,CLR,0.00,VWS V14.01,2013-03-10 20:55:00,
2013-03-10 14:00:00,66.2,18.7,30.27,East,91,6.0,11.0,16,0.00,,CLR,0.00,VWS V14.01,2013-03-10 21:00:00,
2013-03-10 14:05:00,65.9,18.5,30.26,NE,40,5.0,11.0,16,0.00,,CLR,0.00,VWS V14.01,2013-03-10 21:05:00,
2013-03-10 14:10:00,65.8,19.8,30.26,NE,49,3.0,7.0,17,0.00,,CLR,0.00,VWS V14.01,2013-03-10 21:10:00,
2013-03-10 14:15:00,65.7,21.1,30.26,NE,42,6.0,7.0,18,0.00,,CLR,0.00,VWS V14.01,2013-03-10 21:15:00,
2013-03-10 14:20:00,65.8,18.4,30.26,NE,52,5.0,14.0,16,0.00,,CLR,0.00,VWS V14.01,2013-03-10 21:20:00,
2013-03-10 14:25:00,66.0,20.0,30.25,NNE,16,6.0,7.0,17,0.00,,CLR,0.00,VWS V14.01,2013-03-10 21:25:00,
2013-03-10 14:32:00,66.3,18.8,30.25,ENE,61,1.0,11.0,16,0.00,,CLR,0.00,VWS V14.01,2013-03-10 21:32:00,
2013-03-10 14:37:00,66.1,20.0,30.25,ENE,72,5.0,13.0,17,0.00,,CLR,0.00,VWS V14.01,2013-03-10 21:37:00,
2013-03-10 14:42:00,66.1,20.0,30.25,ENE,74,0.0,13.0,17,0.00,,CLR,0.00,VWS V14.01,2013-03-10 21:42:00,
2013-03-10 14:48:00,66.3,18.8,30.24,NNE,24,5.0,10.0,16,0.00,,CLR,0.00,VWS V14.01,2013-03-10 21:48:00,
2013-03-10 14:53:00,66.6,19.0,30.23,North,360,8.0,10.0,16,0.00,,CLR,0.00,VWS V14.01,2013-03-10 21:53:00,
2013-03-10 14:58:00,66.8,19.2,30.24,NE,53,11.0,11.0,16,0.00,,CLR,0.00,VWS V14.01,2013-03-10 21:58:00,
2013-03-10 15:03:00,66.7,19.1,30.23,NNE,28,9.0,11.0,16,0.00,,CLR,0.00,VWS V14.01,2013-03-10 22:03:00,
2013-03-10 15:08:00,66.6,19.0,30.23,NE,41,6.0,6.0,16,0.00,,CLR,0.00,VWS V14.01,2013-03-10 22:08:00,
2013-03-10 15:13:00,66.6,19.0,30.23,ENE,65,2.0,15.0,16,0.00,,CLR,0.00,VWS V14.01,2013-03-10 22:13:00,
2013-03-10 15:19:00,66.7,19.1,30.23,ENE,72,7.0,8.0,16,0.00,,CLR,0.00,VWS V14.01,2013-03-10 22:19:00,
2013-03-10 15:24:00,66.7,19.1,30.23,East,79,6.0,7.0,16,0.00,,CLR,0.00,VWS V14.01,2013-03-10 22:24:00,
2013-03-10 15:29:00,66.7,19.1,30.22,NNE,16,10.0,10.0,16,0.00,,CLR,0.00,VWS V14.01,2013-03-10 22:29:00,
2013-03-10 15:34:00,67.0,16.3,30.22,ENE,62,11.0,11.0,14,0.00,,CLR,0.00,VWS V14.01,2013-03-10 22:34:00,
2013-03-10 15:39:00,67.1,16.3,30.22,ENE,61,5.0,12.0,14,0.00,,CLR,0.00,VWS V14.01,2013-03-10 22:39:00,
2013-03-10 15:44:00,67.2,18.0,30.22,NE,44,4.0,6.0,15,0.00,,CLR,0.00,VWS V14.01,2013-03-10 22:44:00,
2013-03-10 15:49:00,67.2,16.4,30.22,ENE,62,7.0,7.0,14,0.00,,CLR,0.00,VWS V14.01,2013-03-10 22:49:00,
2013-03-10 15:54:00,67.3,14.8,30.22,ENE,57,11.0,17.0,13,0.00,,CLR,0.00,VWS V14.01,2013-03-10 22:54:00,
2013-03-10 16:00:00,67.2,14.7,30.21,NE,56,6.0,11.0,13,0.00,,CLR,0.00,VWS V14.01,2013-03-10 23:00:00,
2013-03-10 16:05:00,67.1,14.6,30.21,NNE,24,7.0,11.0,13,0.00,,CLR,0.00,VWS V14.01,2013-03-10 23:05:00,
2013-03-10 16:10:00,67.2,14.7,30.21,NE,46,11.0,12.0,13,0.00,,CLR,0.00,VWS V14.01,2013-03-10 23:10:00,
2013-03-10 16:15:00,67.2,14.7,30.21,East,87,6.0,9.0,13,0.00,,CLR,0.00,VWS V14.01,2013-03-10 23:15:00,
2013-03-10 16:20:00,67.1,14.6,30.21,ENE,65,7.0,9.0,13,0.00,,CLR,0.00,VWS V14.01,2013-03-10 23:20:00,
2013-03-10 16:25:00,67.1,14.6,30.21,ENE,75,3.0,10.0,13,0.00,,CLR,0.00,VWS V14.01,2013-03-10 23:25:00,
2013-03-10 16:30:00,67.2,14.7,30.21,East,92,5.0,10.0,13,0.00,,CLR,0.00,VWS V14.01,2013-03-10 23:30:00,
2013-03-10 16:36:00,67.4,16.6,30.21,NNE,15,3.0,7.0,14,0.00,,CLR,0.00,VWS V14.01,2013-03-10 23:36:00,
2013-03-10 16:41:00,67.4,18.2,30.21,NNE,13,6.0,7.0,15,0.00,,CLR,0.00,VWS V14.01,2013-03-10 23:41:00,
2013-03-10 16:46:00,67.5,15.0,30.21,NNE,29,6.0,8.0,13,0.00,,CLR,0.00,VWS V14.01,2013-03-10 23:46:00,
2013-03-10 16:51:00,67.5,15.0,30.21,NE,47,4.0,10.0,13,0.00,,CLR,0.00,VWS V14.01,2013-03-10 23:51:00,
2013-03-10 16:56:00,67.2,16.4,30.21,NE,40,4.0,4.0,14,0.00,,CLR,0.00,VWS V14.01,2013-03-10 23:56:00,
2013-03-10 17:01:00,67.1,16.3,30.21,NE,53,6.0,8.0,14,0.00,,CLR,0.00,VWS V14.01,2013-03-11 00:01:00,
2013-03-10 17:06:00,67.0,14.6,30.21,NE,47,5.0,6.0,13,0.00,,CLR,0.00,VWS V14.01,2013-03-11 00:06:00,
2013-03-10 17:11:00,66.9,16.2,30.21,NE,50,4.0,6.0,14,0.00,,CLR,0.00,VWS V14.01,2013-03-11 00:11:00,
2013-03-10 17:17:00,66.7,16.0,30.21,ENE,70,5.0,8.0,14,0.00,,CLR,0.00,VWS V14.01,2013-03-11 00:17:00,
2013-03-10 17:22:00,66.7,16.0,30.21,ENE,75,3.0,8.0,14,0.00,,CLR,0.00,VWS V14.01,2013-03-11 00:22:00,
2013-03-10 17:27:00,66.4,15.8,30.21,ENE,69,3.0,6.0,14,0.00,,CLR,0.00,VWS V14.01,2013-03-11 00:27:00,
2013-03-10 17:32:00,66.3,15.7,30.20,ENE,74,1.0,6.0,14,0.00,,CLR,0.00,VWS V14.01,2013-03-11 00:32:00,
2013-03-10 17:37:00,66.1,15.6,30.20,ENE,75,3.0,4.0,14,0.00,,CLR,0.00,VWS V14.01,2013-03-11 00:37:00,
2013-03-10 17:43:00,66.0,15.5,30.21,ENE,65,1.0,4.0,14,0.00,,CLR,0.00,VWS V14.01,2013-03-11 00:43:00,
2013-03-10 17:48:00,65.9,15.4,30.21,ENE,63,2.0,5.0,14,0.00,,CLR,0.00,VWS V14.01,2013-03-11 00:48:00,
2013-03-10 17:54:00,65.8,16.9,30.21,NNE,32,5.0,8.0,15,0.00,,CLR,0.00,VWS V14.01,2013-03-11 00:54:00,
2013-03-10 17:59:00,65.7,16.8,30.21,NNE,32,2.0,4.0,15,0.00,,CLR,0.00,VWS V14.01,2013-03-11 00:59:00,
2013-03-10 18:04:00,65.6,15.1,30.20,NE,42,2.0,4.0,14,0.00,,CLR,0.00,VWS V14.01,2013-03-11 01:04:00,
2013-03-10 18:09:00,65.4,15.0,30.20,NE,49,3.0,6.0,14,0.00,,CLR,0.00,VWS V14.01,2013-03-11 01:09:00,
2013-03-10 18:14:00,65.2,16.4,30.20,NE,49,3.0,4.0,15,0.00,,CLR,0.00,VWS V14.01,2013-03-11 01:14:00,
2013-03-10 18:19:00,65.1,14.8,30.20,NE,49,3.0,5.0,14,0.00,,CLR,0.00,VWS V14.01,2013-03-11 01:19:00,
2013-03-10 18:24:00,64.8,16.1,30.21,NE,49,3.0,4.0,15,0.00,,CLR,0.00,VWS V14.01,2013-03-11 01:24:00,
2013-03-10 18:29:00,64.6,14.4,30.20,NE,49,2.0,3.0,14,0.00,,CLR,0.00,VWS V14.01,2013-03-11 01:29:00,
2013-03-10 18:35:00,64.2,17.1,30.20,NE,49,0.0,3.0,16,0.00,,CLR,0.00,VWS V14.01,2013-03-11 01:35:00,
2013-03-10 18:40:00,63.9,16.9,30.20,NE,49,0.0,0.0,16,0.00,,CLR,0.00,VWS V14.01,2013-03-11 01:40:00,
2013-03-10 18:45:00,63.4,17.9,30.21,NE,49,0.0,0.0,17,0.00,,CLR,0.00,VWS V14.01,2013-03-11 01:45:00,
2013-03-10 18:50:00,63.1,16.2,30.21,NE,49,0.0,0.0,16,0.00,,CLR,0.00,VWS V14.01,2013-03-11 01:50:00,
2013-03-10 18:55:00,62.5,15.7,30.20,NE,49,0.0,0.0,16,0.00,,CLR,0.00,VWS V14.01,2013-03-11 01:55:00,
2013-03-10 19:00:00,62.1,16.8,30.20,NE,49,0.0,0.0,17,0.00,,CLR,0.00,VWS V14.01,2013-03-11 02:00:00,
2013-03-10 19:06:00,61.4,18.8,30.20,NE,49,0.0,0.0,19,0.00,,CLR,0.00,VWS V14.01,2013-03-11 02:06:00,
2013-03-10 19:11:00,60.8,21.7,30.20,NE,49,0.0,0.0,22,0.00,,CLR,0.00,VWS V14.01,2013-03-11 02:11:00,
2013-03-10 19:17:00,59.9,22.0,30.20,NE,49,0.0,0.0,23,0.00,,CLR,0.00,VWS V14.01,2013-03-11 02:17:00,
2013-03-10 19:22:00,59.2,22.5,30.20,NE,49,0.0,1.0,24,0.00,,CLR,0.00,VWS V14.01,2013-03-11 02:22:00,
2013-03-10 19:27:00,58.5,21.9,30.20,NE,49,0.0,0.0,24,0.00,,CLR,0.00,VWS V14.01,2013-03-11 02:27:00,
2013-03-10 19:32:00,57.8,22.2,30.20,NE,49,0.0,0.0,25,0.00,,CLR,0.00,VWS V14.01,2013-03-11 02:32:00,
2013-03-10 19:38:00,57.2,22.6,30.20,NE,49,0.0,0.0,26,0.00,,CLR,0.00,VWS V14.01,2013-03-11 02:38:00,
2013-03-10 19:43:00,56.5,22.0,30.21,NE,49,0.0,1.0,26,0.00,,CLR,0.00,VWS V14.01,2013-03-11 02:43:00,
2013-03-10 19:48:00,55.8,22.3,30.21,NE,49,0.0,0.0,27,0.00,,CLR,0.00,VWS V14.01,2013-03-11 02:48:00,
2013-03-10 19:53:00,55.2,22.7,30.21,NE,49,0.0,0.0,28,0.00,,CLR,0.00,VWS V14.01,2013-03-11 02:53:00,
2013-03-10 19:58:00,54.6,22.2,30.21,NE,49,0.0,0.0,28,0.00,,CLR,0.00,VWS V14.01,2013-03-11 02:58:00,
2013-03-10 20:03:00,54.1,22.6,30.21,NE,49,0.0,0.0,29,0.00,,CLR,0.00,VWS V14.01,2013-03-11 03:03:00,
2013-03-10 20:09:00,53.7,23.0,30.21,NE,49,0.0,0.0,30,0.00,,CLR,0.00,VWS V14.01,2013-03-11 03:09:00,
2013-03-10 20:14:00,53.2,22.6,30.21,NE,49,0.0,0.0,30,0.00,,CLR,0.00,VWS V14.01,2013-03-11 03:14:00,
2013-03-10 20:19:00,52.8,23.0,30.21,NE,49,0.0,0.0,31,0.00,,CLR,0.00,VWS V14.01,2013-03-11 03:19:00,
2013-03-10 20:24:00,52.4,23.4,30.21,NE,49,0.0,0.0,32,0.00,,CLR,0.00,VWS V14.01,2013-03-11 03:24:00,
2013-03-10 20:29:00,52.1,23.9,30.21,NE,49,0.0,0.0,33,0.00,,CLR,0.00,VWS V14.01,2013-03-11 03:29:00,
2013-03-10 20:34:00,51.7,23.5,30.21,NE,49,0.0,0.0,33,0.00,,CLR,0.00,VWS V14.01,2013-03-11 03:34:00,
2013-03-10 20:40:00,51.4,24.0,30.21,NE,49,0.0,0.0,34,0.00,,CLR,0.00,VWS V14.01,2013-03-11 03:40:00,
2013-03-10 20:45:00,51.0,23.6,30.21,NE,49,0.0,2.0,34,0.00,,CLR,0.00,VWS V14.01,2013-03-11 03:45:00,
2013-03-10 20:50:00,50.6,22.6,30.22,NE,49,0.0,0.0,33,0.00,,CLR,0.00,VWS V14.01,2013-03-11 03:50:00,
2013-03-10 20:55:00,50.3,23.0,30.21,NE,49,0.0,0.0,34,0.00,,CLR,0.00,VWS V14.01,2013-03-11 03:55:00,
2013-03-10 21:00:00,49.9,24.0,30.21,NE,49,0.0,0.0,36,0.00,,CLR,0.00,VWS V14.01,2013-03-11 04:00:00,
2013-03-10 21:02:00,49.8,23.9,30.21,NE,49,0.0,0.0,36,0.00,,CLR,0.00,VWS V14.01,2013-03-11 04:02:00,
2013-03-10 21:07:00,49.5,24.3,30.21,NE,49,0.0,0.0,37,0.00,,CLR,0.00,VWS V14.01,2013-03-11 04:07:00,
2013-03-10 21:10:00,49.4,24.2,30.21,NE,49,0.0,0.0,37,0.00,,CLR,0.00,VWS V14.01,2013-03-11 04:10:00,
2013-03-10 21:15:00,49.1,24.6,30.22,NE,49,0.0,0.0,38,0.00,,CLR,0.00,VWS V14.01,2013-03-11 04:15:00,
2013-03-10 21:20:00,48.8,23.7,30.22,NE,49,0.0,0.0,37,0.00,,CLR,0.00,VWS V14.01,2013-03-11 04:20:00,
2013-03-10 21:26:00,48.5,24.7,30.22,NE,49,0.0,0.0,39,0.00,,CLR,0.00,VWS V14.01,2013-03-11 04:26:00,
2013-03-10 21:31:00,48.3,23.9,30.22,NE,49,0.0,0.0,38,0.00,,CLR,0.00,VWS V14.01,2013-03-11 04:31:00,
2013-03-10 21:37:00,47.9,24.1,30.22,NE,49,2.0,2.0,39,0.00,,CLR,0.00,VWS V14.01,2013-03-11 04:37:00,
2013-03-10 21:42:00,47.6,24.5,30.22,NE,49,0.0,3.0,40,0.00,,CLR,0.00,VWS V14.01,2013-03-11 04:42:00,
2013-03-10 21:47:00,47.3,23.6,30.22,NE,49,0.0,0.0,39,0.00,,CLR,0.00,VWS V14.01,2013-03-11 04:47:00,
2013-03-10 21:52:00,47.0,24.0,30.22,NE,49,0.0,0.0,40,0.00,,CLR,0.00,VWS V14.01,2013-03-11 04:52:00,
2013-03-10 21:57:00,46.7,24.3,30.23,NE,49,0.0,0.0,41,0.00,,CLR,0.00,VWS V14.01,2013-03-11 04:57:00,
2013-03-10 22:03:00,46.4,24.0,30.23,NE,49,0.0,0.0,41,0.00,,CLR,0.00,VWS V14.01,2013-03-11 05:03:00,
2013-03-10 22:08:00,46.2,24.4,30.23,NE,49,0.0,0.0,42,0.00,,CLR,0.00,VWS V14.01,2013-03-11 05:08:00,
2013-03-10 22:13:00,46.0,24.8,30.23,NE,49,0.0,0.0,43,0.00,,CLR,0.00,VWS V14.01,2013-03-11 05:13:00,
2013-03-10 22:18:00,45.7,24.5,30.23,NE,49,0.0,1.0,43,0.00,,CLR,0.00,VWS V14.01,2013-03-11 05:18:00,
2013-03-10 22:23:00,45.5,24.3,30.23,NE,49,0.0,2.0,43,0.00,,CLR,0.00,VWS V14.01,2013-03-11 05:23:00,
2013-03-10 22:28:00,45.4,24.2,30.23,NE,49,0.0,0.0,43,0.00,,CLR,0.00,VWS V14.01,2013-03-11 05:28:00,
2013-03-10 22:33:00,45.4,24.8,30.23,NE,49,0.0,0.0,44,0.00,,CLR,0.00,VWS V14.01,2013-03-11 05:33:00,
2013-03-10 22:38:00,45.3,24.1,30.23,NE,49,0.0,0.0,43,0.00,,CLR,0.00,VWS V14.01,2013-03-11 05:38:00,
2013-03-10 22:43:00,45.3,24.7,30.24,NE,49,0.0,0.0,44,0.00,,CLR,0.00,VWS V14.01,2013-03-11 05:43:00,
2013-03-10 22:48:00,45.2,24.6,30.24,NE,49,0.0,0.0,44,0.00,,CLR,0.00,VWS V14.01,2013-03-11 05:48:00,
2013-03-10 22:54:00,45.0,25.5,30.24,NE,49,0.0,0.0,46,0.00,,CLR,0.00,VWS V14.01,2013-03-11 05:54:00,
2013-03-10 22:59:00,44.7,25.2,30.24,NE,49,0.0,0.0,46,0.00,,CLR,0.00,VWS V14.01,2013-03-11 05:59:00,
2013-03-10 23:04:00,44.5,25.5,30.24,NE,49,0.0,2.0,47,0.00,,CLR,0.00,VWS V14.01,2013-03-11 06:04:00,
2013-03-10 23:09:00,44.3,25.4,30.24,NE,49,0.0,0.0,47,0.00,,CLR,0.00,VWS V14.01,2013-03-11 06:09:00,
2013-03-10 23:14:00,44.2,25.3,30.24,NE,49,0.0,0.0,47,0.00,,CLR,0.00,VWS V14.01,2013-03-11 06:14:00,
2013-03-10 23:19:00,43.9,25.5,30.23,NE,49,0.0,0.0,48,0.00,,CLR,0.00,VWS V14.01,2013-03-11 06:19:00,
2013-03-10 23:24:00,43.8,24.9,30.23,NE,49,0.0,2.0,47,0.00,,CLR,0.00,VWS V14.01,2013-03-11 06:24:00,
2013-03-10 23:30:00,43.6,25.2,30.23,NE,49,0.0,0.0,48,0.00,,CLR,0.00,VWS V14.01,2013-03-11 06:30:00,
2013-03-10 23:35:00,43.5,25.1,30.24,NE,49,0.0,0.0,48,0.00,,CLR,0.00,VWS V14.01,2013-03-11 06:35:00,
2013-03-10 23:40:00,43.4,25.0,30.23,NE,49,0.0,0.0,48,0.00,,CLR,0.00,VWS V14.01,2013-03-11 06:40:00,
2013-03-10 23:45:00,43.2,25.4,30.23,NE,49,0.0,0.0,49,0.00,,CLR,0.00,VWS V14.01,2013-03-11 06:45:00,
2013-03-10 23:50:00,43.1,25.3,30.23,NE,49,0.0,0.0,49,0.00,,CLR,0.00,VWS V14.01,2013-03-11 06:50:00,
2013-03-10 23:55:00,42.9,24.6,30.23,NE,49,0.0,0.0,48,0.00,,CLR,0.00,VWS V14.01,2013-03-11 06:55:00,